Currently 84°F in De Luz, California, USA
84°F
85°F / 59°F
2 mph S
0.00"
Friday, July 21, 2017 1:47 PM PDT

De Luz, California Weather Summary
Last 36 Hours

Temperature Winds Hourly Humidity Dewpoint
Time Report Norm Report Norm Max Gusts Precip. Rpt. Norm Rpt. Norm Pressure
1Fri 01:47 PM  84.0°F  84°F  2 mph S  3 mph  8 mph  0.00"  46%  46%  60°F  61°F  29.90"
2Fri 01:37 PM  84.9°F  84°F  2 mph SW  3 mph  7 mph  ----  47%  46%  62°F  61°F  29.91"
Fri 01:01 PM  84.1°F  84°F  2 mph SW  3 mph  10 mph  0.00"  49%  47%  62°F  61°F  29.91"
Fri 12:00 PM  82.2°F  82°F  4 mph S  2 mph  11 mph  0.00"  49%  50%  61°F  61°F  29.93"
Fri 11:00 AM  80.3°F  79°F  1 mph SW  2 mph  6 mph  0.00"  53%  57%  61°F  62°F  29.94"
Fri 10:00 AM  76.0°F  76°F  1 mph S  1 mph  5 mph  0.00"  68%  66%  64°F  63°F  29.94"
Fri 09:00 AM  70.6°F  71°F  calm  calm  none  0.00"  82%  76%  65°F  63°F  29.95"
Fri 08:00 AM  62.1°F  67°F  calm  calm  none  0.00"  98%  83%  62°F  61°F  29.95"
Fri 07:00 AM  59.5°F  64°F  calm  calm  none  0.00"  97%  86%  59°F  59°F  29.94"
3Fri 06:19 AM  58.9°F  63°F  calm  calm  none  ----  97%  86%  58°F  59°F  29.93"
Fri 06:00 AM  59.5°F  63°F  calm  calm  none  0.01"  97%  86%  59°F  59°F  29.92"
Fri 05:00 AM  60.5°F  63°F  calm  calm  none  0.00"  96%  86%  59°F  59°F  29.91"
Fri 04:00 AM  61.6°F  63°F  calm  calm  none  0.00"  96%  86%  60°F  59°F  29.90"
Fri 03:00 AM  61.8°F  64°F  calm  calm  none  0.00"  96%  85%  61°F  59°F  29.91"
Fri 02:00 AM  63.1°F  64°F  calm  calm  none  0.00"  96%  85%  62°F  59°F  29.91"
Fri 01:00 AM  63.4°F  64°F  calm  calm  none  0.00"  95%  85%  62°F  59°F  29.93"
Fri 12:00 AM  62.6°F  64°F  calm  calm  none  0.00"  93%  85%  60°F  59°F  29.94"
Thu 11:00 PM  64.2°F  65°F  calm  calm  none  0.00"  92%  84%  62°F  60°F  29.94"
Thu 10:00 PM  65.6°F  66°F  calm  calm  6 mph  0.00"  90%  83%  62°F  60°F  29.94"
Thu 09:00 PM  66.9°F  67°F  2 mph S  1 mph  8 mph  0.00"  83%  80%  61°F  60°F  29.94"
Thu 08:00 PM  70.3°F  70°F  2 mph S  2 mph  8 mph  0.00"  69%  74%  59°F  61°F  29.93"
Thu 07:00 PM  75.1°F  73°F  1 mph S  2 mph  7 mph  0.00"  55%  67%  57°F  61°F  29.93"
Thu 06:00 PM  78.5°F  77°F  1 mph SW  3 mph  7 mph  0.00"  51%  59%  58°F  61°F  29.91"
Thu 05:00 PM  80.5°F  80°F  2 mph S  3 mph  12 mph  0.00"  47%  54%  58°F  61°F  29.91"
Thu 04:00 PM  82.8°F  82°F  2 mph SW  3 mph  14 mph  0.00"  46%  50%  59°F  61°F  29.92"
Thu 03:00 PM  83.6°F  83°F  5 mph S  3 mph  14 mph  0.00"  47%  47%  61°F  60°F  29.94"
Thu 02:00 PM  87.4°F  84°F  2 mph SW  3 mph  13 mph  0.00"  45%  46%  63°F  60°F  29.94"
Thu 01:00 PM  86.1°F  84°F  4 mph S  3 mph  13 mph  0.00"  48%  47%  64°F  61°F  29.96"
Thu 12:00 PM  84.3°F  82°F  1 mph S  2 mph  7 mph  0.00"  51%  50%  64°F  61°F  29.97"
Thu 11:00 AM  80.5°F  79°F  1 mph SW  2 mph  8 mph  0.00"  56%  57%  63°F  62°F  29.98"
Thu 10:00 AM  77.6°F  75°F  2 mph S  1 mph  7 mph  0.00"  57%  67%  61°F  63°F  29.99"
Thu 09:00 AM  74.2°F  71°F  calm  calm  none  0.00"  66%  77%  62°F  63°F  29.99"
Thu 08:00 AM  70.4°F  66°F  calm  calm  none  0.00"  69%  84%  59°F  61°F  29.99"
Thu 07:01 AM  64.0°F  64°F  calm  calm  none  0.00"  80%  86%  57°F  59°F  29.99"
Thu 06:01 AM  63.4°F  63°F  calm  calm  none  0.00"  79%  86%  57°F  59°F  29.97"
Thu 05:00 AM  62.6°F  63°F  calm  calm  none  0.00"  83%  86%  57°F  59°F  29.96"
Thu 04:00 AM  63.1°F  63°F  calm  calm  none  0.00"  92%  86%  61°F  59°F  29.94"
Thu 03:00 AM  62.6°F  63°F  calm  calm  none  0.00"  91%  86%  60°F  59°F  29.95"
Thu 02:01 AM  62.6°F  64°F  calm  calm  none  0.00"  91%  86%  60°F  59°F  29.95"

  1. Current weather data. No green row appears if the current weather data is also the high or low for the current day.
  2. High temperature for the current day.
  3. Low temperature for the current day.

The De Luz, California weather pages are a service of WeatherCurrents. De Luz is located west of the Temecula Valley and north of Fallbrook, on the Santa Rosa Plateau, in southwestern Riverside County, California.
Copyright ©Fri Jul 21 13:48:47 PDT 2017  WeatherCurrents. All rights reserved. - Submit questions and comments - Privacy Policy

This page automatically refreshes every 10 minutes.